Time;durP1;ratioP1;P1;durP2;ratioP2;P2;SDS_P1;SDS_P2;PMS_P1;PMS_P2;Temp;Humidity;BMP_temperature;BMP_pressure;BME280_temperature;BME280_humidity;BME280_pressure;Samples;Min_cycle;Max_cycle;Signal;HPM_P1;HPM_P2
2022/02/03 00:01:02;;;;;;;;;6.33;6.33;;;;;9.94;75.76;101930.44;5102020;27;45366;-79
2022/02/03 00:03:45;;;;;;;;;7.00;7.00;;;;;9.75;75.56;101896.75;5100908;27;45274;-79
2022/02/03 00:06:14;;;;;;;;;7.00;6.67;;;;;9.90;75.63;101921.06;5102014;27;45335;-79
2022/02/03 00:27:45;;;;;;;;;5.67;5.67;;;;;9.95;75.60;101907.38;5080914;28;45461;-79
2022/02/03 00:30:13;;;;;;;;;5.33;5.00;;;;;9.87;75.39;101888.66;5081066;27;45329;-79
2022/02/03 00:32:52;;;;;;;;;5.00;5.00;;;;;9.89;75.10;101887.53;5081116;27;45299;-79
2022/02/03 00:35:33;;;;;;;;;4.33;4.33;;;;;9.79;74.86;101881.41;5079479;28;45409;-79
2022/02/03 00:38:16;;;;;;;;;4.00;4.00;;;;;9.75;75.57;101878.19;5081056;27;45308;-79
2022/02/03 00:48:59;;;;;;;;;6.00;5.33;;;;;9.83;74.47;101904.03;5080444;28;45427;-79
2022/02/03 00:51:26;;;;;;;;;6.00;5.00;;;;;9.84;74.56;101903.91;5080581;27;46066;-79
2022/02/03 00:53:53;;;;;;;;;6.00;6.00;;;;;9.77;74.97;101884.19;5080801;27;45224;-79
2022/02/03 00:56:30;;;;;;;;;3.00;3.00;;;;;9.71;74.34;101872.31;5080752;27;45371;-79
2022/02/03 00:59:08;;;;;;;;;3.67;3.67;;;;;9.79;74.05;101887.53;5079166;28;46461;-79
2022/02/03 01:01:37;;;;;;;;;5.67;4.67;;;;;9.78;74.31;101891.19;5080518;28;45359;-79
2022/02/03 01:04:11;;;;;;;;;4.00;4.00;;;;;9.80;74.25;101878.59;5079060;28;45862;-79
2022/02/03 01:06:47;;;;;;;;;6.00;5.00;;;;;9.75;73.64;101869.41;5080737;28;45287;-79
2022/02/03 01:09:20;;;;;;;;;4.33;4.33;;;;;9.78;73.93;101869.09;5078963;28;46243;-79
2022/02/03 01:11:58;;;;;;;;;3.33;3.33;;;;;9.81;74.40;101876.78;5080227;27;46188;-79
2022/02/03 01:14:33;;;;;;;;;4.67;4.67;;;;;9.69;74.28;101860.16;5079061;28;46220;-79
2022/02/03 01:44:21;;;;;;;;;5.00;4.00;;;;;9.69;73.56;101865.47;5100230;27;45289;-79
2022/02/03 01:47:06;;;;;;;;;3.33;3.33;;;;;9.75;73.97;101880.84;5099120;27;45313;-79
2022/02/03 01:52:30;;;;;;;;;3.00;3.00;;;;;9.57;74.11;101840.88;5099566;27;45335;-79
2022/02/03 01:54:58;;;;;;;;;4.33;4.33;;;;;9.74;73.95;101873.84;5098704;27;48773;-79
2022/02/03 01:57:34;;;;;;;;;5.00;4.67;;;;;9.70;74.22;101867.97;5100352;27;45232;-79
2022/02/03 02:00:05;;;;;;;;;5.33;5.33;;;;;9.61;73.65;101858.22;5100408;27;45331;-79
2022/02/03 02:02:33;;;;;;;;;6.33;6.00;;;;;9.55;73.75;101856.13;5100227;27;46364;-79
2022/02/03 02:05:19;;;;;;;;;5.00;5.00;;;;;9.66;73.75;101868.41;5098529;27;47666;-79
2022/02/03 02:08:07;;;;;;;;;4.67;4.67;;;;;9.62;73.57;101870.50;5100251;27;45313;-79
2022/02/03 02:11:12;;;;;;;;;3.00;3.00;;;;;9.51;73.43;101852.06;5098578;27;45329;-79
2022/02/03 02:39:24;;;;;;;;;5.33;4.67;;;;;9.24;73.19;101803.16;5078904;28;45395;-79
2022/02/03 02:44:37;;;;;;;;;5.00;4.00;;;;;9.16;72.34;101772.06;5079300;27;45311;-79
2022/02/03 02:47:08;;;;;;;;;4.67;4.67;;;;;9.19;72.92;101777.91;5079122;27;45381;-79
2022/02/03 02:49:56;;;;;;;;;5.67;5.67;;;;;9.17;73.23;101760.47;5077582;28;47924;-79
2022/02/03 02:52:36;;;;;;;;;5.00;5.00;;;;;9.29;72.65;101777.06;5079195;27;45215;-79
2022/02/03 03:33:16;;;;;;;;;5.67;5.33;;;;;9.09;73.00;101690.41;5102394;27;45259;-79
2022/02/03 03:35:48;;;;;;;;;6.33;6.33;;;;;8.96;73.34;101666.81;5102347;27;45231;-79
2022/02/03 03:38:19;;;;;;;;;5.33;4.67;;;;;8.99;73.26;101665.69;5102631;27;45329;-79
2022/02/03 03:40:49;;;;;;;;;8.33;7.67;;;;;9.10;72.88;101683.28;5102209;27;45317;-79
2022/02/03 03:43:26;;;;;;;;;5.00;5.00;;;;;9.04;73.12;101665.28;5102173;27;45295;-79
2022/02/03 03:45:53;;;;;;;;;7.33;7.00;;;;;8.99;73.19;101654.25;5100836;27;45719;-79
2022/02/03 03:48:20;;;;;;;;;8.33;8.33;;;;;9.07;72.54;101667.66;5101052;27;45346;-79
2022/02/03 03:50:51;;;;;;;;;10.67;9.67;;;;;9.06;72.74;101666.81;5100840;27;46427;-79
2022/02/03 03:53:28;;;;;;;;;7.33;7.33;;;;;8.94;72.61;101644.06;5102085;27;46190;-79
2022/02/03 04:50:56;;;;;;;;;6.67;6.67;;;;;8.82;73.58;101582.41;5080654;28;45326;-79
2022/02/03 05:01:36;;;;;;;;;7.67;6.33;;;;;8.94;73.58;101573.31;5080417;28;45760;-79
2022/02/03 05:04:45;;;;;;;;;6.67;6.00;;;;;8.96;73.86;101563.41;5080409;28;45296;-79
2022/02/03 05:07:49;;;;;;;;;8.33;6.00;;;;;8.89;73.74;101549.03;5079184;28;45349;-79
2022/02/03 05:10:36;;;;;;;;;5.00;5.00;;;;;8.98;73.77;101557.13;5080288;27;45419;-79
2022/02/03 05:13:44;;;;;;;;;6.67;5.67;;;;;8.89;73.05;101546.38;5080543;27;45349;-79
2022/02/03 05:20:15;;;;;;;;;5.00;5.00;;;;;8.88;73.21;101544.72;5097870;27;45381;-80
2022/02/03 06:21:33;;;;;;;;;6.33;6.33;;;;;8.54;73.12;101486.91;5099837;27;45322;-79
2022/02/03 06:29:43;;;;;;;;;7.00;5.00;;;;;8.60;73.13;101483.69;5099791;27;45304;-78
2022/02/03 06:32:08;;;;;;;;;6.67;6.67;;;;;8.64;73.18;101494.81;5106059;27;45540;-77
2022/02/03 06:34:34;;;;;;;;;8.00;8.00;;;;;8.53;72.91;101474.63;5101920;27;45455;-78
2022/02/03 06:36:59;;;;;;;;;8.67;8.67;;;;;8.58;73.61;101478.53;5100066;27;45449;-77
2022/02/03 06:39:29;;;;;;;;;9.67;7.00;;;;;8.57;73.05;101470.72;5100493;27;47363;-78
2022/02/03 06:41:58;;;;;;;;;7.00;7.00;;;;;8.54;73.33;101469.22;5103402;27;45192;-77
2022/02/03 06:44:35;;;;;;;;;10.33;9.67;;;;;8.54;73.09;101474.50;5102218;27;45266;-77
2022/02/03 06:47:07;;;;;;;;;12.33;11.33;;;;;8.50;73.56;101456.34;5103255;27;45267;-76
2022/02/03 06:49:52;;;;;;;;;11.67;10.67;;;;;8.46;73.14;101451.34;5103058;27;45326;-76
2022/02/03 06:52:28;;;;;;;;;13.67;12.00;;;;;8.50;73.21;101456.34;5103246;27;46193;-78
2022/02/03 06:55:17;;;;;;;;;13.67;12.33;;;;;8.37;73.72;101431.00;5101869;27;45260;-76
2022/02/03 06:57:59;;;;;;;;;11.00;11.00;;;;;8.49;73.40;101446.72;5076937;27;45258;-77
2022/02/03 07:00:45;;;;;;;;;13.00;12.00;;;;;8.38;73.15;101434.50;5062700;28;45320;-77
2022/02/03 07:03:18;;;;;;;;;11.00;11.00;;;;;8.39;73.25;101425.56;5062483;28;45260;-77
2022/02/03 07:05:44;;;;;;;;;18.33;16.00;;;;;8.33;73.42;101430.44;5062066;28;45322;-76
2022/02/03 07:08:15;;;;;;;;;10.00;9.00;;;;;8.34;73.35;101441.88;5063024;28;45544;-77
2022/02/03 07:10:40;;;;;;;;;13.33;13.33;;;;;8.39;73.43;101452.03;5061793;28;45454;-77
2022/02/03 07:13:07;;;;;;;;;11.00;9.67;;;;;8.38;73.34;101456.50;5060686;28;47211;-77
2022/02/03 07:15:33;;;;;;;;;11.33;11.33;;;;;8.33;73.77;101450.81;5060871;28;45191;-77
2022/02/03 07:17:59;;;;;;;;;9.67;8.00;;;;;8.31;73.72;101442.16;5076037;27;45222;-77
2022/02/03 07:20:28;;;;;;;;;12.67;11.67;;;;;8.32;73.90;101446.50;5101054;27;46399;-78
2022/02/03 07:22:54;;;;;;;;;10.00;10.00;;;;;8.40;74.16;101459.84;5102538;27;46138;-77
2022/02/03 07:25:19;;;;;;;;;11.00;11.00;;;;;8.37;73.71;101435.44;5101049;27;45318;-77
2022/02/03 07:27:44;;;;;;;;;11.33;9.67;;;;;8.46;73.72;101453.13;5102625;27;45324;-77
2022/02/03 07:30:12;;;;;;;;;14.00;12.33;;;;;8.40;73.92;101451.06;5101265;27;45960;-77
2022/02/03 07:32:37;;;;;;;;;9.00;9.00;;;;;8.34;73.62;101449.81;5102630;27;46328;-77
2022/02/03 07:35:03;;;;;;;;;10.00;9.00;;;;;8.43;73.71;101464.03;5100859;27;45396;-77
2022/02/03 07:37:29;;;;;;;;;14.00;11.00;;;;;8.32;73.28;101438.56;5101245;27;45322;-77
2022/02/03 07:39:55;;;;;;;;;10.33;9.67;;;;;8.36;73.76;101447.88;5102206;27;45316;-77
2022/02/03 07:42:21;;;;;;;;;12.33;12.33;;;;;8.42;73.82;101452.59;5100872;27;47050;-77
2022/02/03 07:44:46;;;;;;;;;12.00;12.00;;;;;8.21;73.20;101432.41;5102424;27;45304;-77
2022/02/03 07:47:11;;;;;;;;;14.33;13.00;;;;;8.35;73.28;101467.38;5084215;27;45482;-77
2022/02/03 07:49:37;;;;;;;;;11.33;10.00;;;;;8.34;73.12;101460.41;5068812;28;47241;-78
2022/02/03 07:52:04;;;;;;;;;11.33;11.33;;;;;8.23;73.21;101456.09;5070539;27;46415;-80
2022/02/03 07:54:31;;;;;;;;;16.33;14.00;;;;;8.38;73.29;101463.63;5062066;28;45440;-77
2022/02/03 07:57:00;;;;;;;;;10.67;10.67;;;;;8.34;72.84;101465.72;5060274;28;45166;-77
2022/02/03 07:59:25;;;;;;;;;15.00;11.00;;;;;8.37;73.66;101472.53;5061314;28;45271;-77
2022/02/03 08:01:51;;;;;;;;;10.33;10.33;;;;;8.24;73.99;101441.91;5059955;28;48309;-77
2022/02/03 08:04:20;;;;;;;;;12.33;12.33;;;;;8.32;73.06;101457.91;5059593;28;45277;-76
2022/02/03 08:06:47;;;;;;;;;14.00;13.00;;;;;8.28;72.76;101453.88;5060603;28;45347;-76
2022/02/03 08:09:22;;;;;;;;;12.33;10.67;;;;;8.20;73.02;101451.09;5061045;28;45220;-79
2022/02/03 08:11:50;;;;;;;;;12.00;10.67;;;;;8.20;73.50;101453.72;5061119;28;46074;-75
2022/02/03 08:21:47;;;;;;;;;11.50;11.00;;;;;8.12;73.23;101448.31;5101507;27;45377;-79
2022/02/03 08:24:23;;;;;;;;;15.00;11.50;;;;;8.11;73.47;101436.06;5101724;27;45187;-78
2022/02/03 08:26:59;;;;;;;;;11.33;11.33;;;;;8.28;73.39;101448.56;5102342;27;45442;-74
2022/02/03 08:32:16;;;;;;;;;13.00;12.67;;;;;8.28;73.59;101453.88;5101697;27;46049;-77
2022/02/03 08:37:58;;;;;;;;;14.00;14.00;;;;;8.26;73.25;101439.94;5104435;27;45439;-80
2022/02/03 08:41:02;;;;;;;;;18.33;15.33;;;;;8.30;73.20;101457.22;5100996;27;45259;-76
2022/02/03 08:43:06;;;;;;;;;15.00;12.67;;;;;8.28;73.62;101456.53;5098017;27;45863;-76
2022/02/03 08:45:31;;;;;;;;;17.00;16.33;;;;;8.32;73.24;101455.25;5101417;27;45464;-77
2022/02/03 08:47:56;;;;;;;;;17.00;16.33;;;;;8.36;73.06;101458.47;5101605;27;45198;-77
2022/02/03 08:50:23;;;;;;;;;16.67;15.67;;;;;8.31;73.66;101453.59;5099952;27;47212;-77
2022/02/03 08:52:57;;;;;;;;;16.67;13.00;;;;;8.33;72.83;101459.56;5101448;27;45310;-78
2022/02/03 08:55:39;;;;;;;;;19.67;17.33;;;;;8.33;73.37;101454.28;5101257;27;45172;-78
2022/02/03 09:39:04;;;;;;;;;20.67;19.33;;;;;8.86;72.93;101413.31;5080055;27;45177;-78
2022/02/03 09:58:15;;;;;;;;;20.33;18.00;;;;;8.94;72.67;101374.47;5079665;28;45887;-77
2022/02/03 10:03:31;;;;;;;;;22.33;19.00;;;;;9.06;72.04;101379.56;5079858;27;45259;-77
2022/02/03 10:08:33;;;;;;;;;18.33;17.67;;;;;9.08;72.28;101374.97;5078701;27;45495;-77
2022/02/03 10:11:15;;;;;;;;;20.00;19.33;;;;;9.21;71.88;101388.69;5079158;27;45362;-77
2022/02/03 10:13:42;;;;;;;;;22.67;19.33;;;;;9.19;71.74;101372.09;5074661;28;45357;-77
2022/02/03 10:16:08;;;;;;;;;32.33;30.33;;;;;9.17;71.85;101384.69;5081153;28;47359;-78
2022/02/03 10:18:33;;;;;;;;;29.00;28.33;;;;;9.07;71.95;101371.47;5088588;27;46072;-76
2022/02/03 10:21:00;;;;;;;;;22.67;19.00;;;;;9.08;71.52;101369.66;5098128;27;45278;-77
2022/02/03 10:23:27;;;;;;;;;20.33;19.33;;;;;9.06;71.39;101374.25;5083394;27;45212;-76
2022/02/03 10:26:05;;;;;;;;;23.67;22.67;;;;;8.99;71.26;101371.38;5083036;27;45271;-77
2022/02/03 10:28:30;;;;;;;;;22.00;20.00;;;;;8.97;71.66;101376.00;5082768;27;45360;-76
2022/02/03 10:31:03;;;;;;;;;18.67;17.33;;;;;8.91;71.81;101372.13;5083152;27;45529;-77
2022/02/03 10:33:32;;;;;;;;;16.00;16.00;;;;;9.04;71.53;101395.63;5099387;27;45254;-76
2022/02/03 10:36:07;;;;;;;;;21.67;21.67;;;;;9.05;71.80;101386.69;5100309;27;46624;-80
2022/02/03 10:38:55;;;;;;;;;54.50;43.25;;;;;9.05;72.04;101372.59;5084829;27;45361;-78
2022/02/03 11:00:37;;;;;;;;;31.00;30.00;;;;;9.08;71.40;101383.75;5084977;27;46184;-80
2022/02/03 11:08:24;;;;;;;;;25.00;23.33;;;;;9.12;71.49;101370.19;5082902;27;45345;-80
2022/02/03 11:10:56;;;;;;;;;26.33;26.33;;;;;9.24;71.37;101376.09;5082455;28;46258;-79
2022/02/03 11:13:22;;;;;;;;;27.33;25.67;;;;;9.29;71.84;101372.03;5081177;28;45288;-79
2022/02/03 11:15:50;;;;;;;;;20.33;16.00;;;;;9.11;71.18;101342.00;5098409;27;45370;-80
2022/02/03 11:18:17;;;;;;;;;17.67;17.67;;;;;9.34;71.46;101372.41;5081516;28;46083;-81
2022/02/03 11:20:44;;;;;;;;;52.25;43.50;;;;;9.34;71.20;101347.72;5097713;27;47111;-84
2022/02/03 11:25:57;;;;;;;;;56.75;45.25;;;;;9.38;71.03;101329.66;5080954;28;45158;-82
2022/02/03 11:37:29;;;;;;;;;30.00;29.00;;;;;9.49;70.88;101316.19;5082151;28;45236;-82
2022/02/03 11:52:11;;;;;;;;;27.00;26.33;;;;;9.47;70.68;101302.22;5063763;28;45473;-78
2022/02/03 12:19:42;;;;;;;;;28.00;26.33;;;;;9.56;69.79;101258.00;5074034;27;45439;-77
2022/02/03 12:22:24;;;;;;;;;23.00;23.00;;;;;9.54;69.50;101258.16;5060482;28;45427;-79
2022/02/03 12:25:22;;;;;;;;;29.00;26.33;;;;;9.63;70.01;101268.81;5060901;28;45219;-76
2022/02/03 12:28:00;;;;;;;;;25.00;24.00;;;;;9.64;70.30;101270.50;5064415;27;47435;-78
2022/02/03 12:30:37;;;;;;;;;22.00;21.00;;;;;9.58;70.54;101264.00;5069683;28;45550;-79
2022/02/03 12:38:36;;;;;;;;;29.33;28.00;;;;;9.54;70.43;101266.13;5060543;28;45888;-77
2022/02/03 12:41:13;;;;;;;;;31.67;29.67;;;;;9.48;70.49;101240.19;5060370;28;45301;-78
2022/02/03 12:43:54;;;;;;;;;34.00;30.00;;;;;9.54;70.65;101250.19;5061363;28;45342;-80
2022/02/03 12:46:20;;;;;;;;;30.67;29.33;;;;;9.46;70.44;101235.03;5061006;28;45472;-79
2022/02/03 12:48:45;;;;;;;;;35.33;32.33;;;;;9.41;70.48;101231.19;5058883;28;48355;-78
2022/02/03 12:51:11;;;;;;;;;33.33;28.67;;;;;9.50;70.54;101255.97;5060546;28;45173;-79
2022/02/03 12:53:40;;;;;;;;;26.00;24.67;;;;;9.35;70.67;101232.66;5060694;28;45189;-78
2022/02/03 12:56:08;;;;;;;;;26.33;26.33;;;;;9.35;70.92;101227.34;5060407;28;45318;-78
2022/02/03 12:58:39;;;;;;;;;28.67;28.67;;;;;9.56;71.01;101248.22;5059037;28;48073;-78
2022/02/03 13:01:13;;;;;;;;;30.00;27.00;;;;;9.58;70.76;101242.78;5058888;28;45305;-79
2022/02/03 13:03:42;;;;;;;;;33.00;30.00;;;;;9.58;70.82;101237.47;5060330;28;45176;-79
2022/02/03 13:06:14;;;;;;;;;30.67;29.33;;;;;9.63;70.56;101242.28;5058863;28;47234;-79
2022/02/03 13:08:49;;;;;;;;;28.00;24.00;;;;;9.59;70.72;101247.94;5073652;28;45373;-78
2022/02/03 13:11:39;;;;;;;;;30.67;27.00;;;;;9.52;70.66;101236.25;5079951;27;45284;-79
2022/02/03 13:14:28;;;;;;;;;30.00;29.00;;;;;9.55;70.96;101251.84;5096190;27;45444;-79
2022/02/03 13:17:06;;;;;;;;;34.33;30.67;;;;;9.42;71.09;101217.78;5079033;28;46173;-78
2022/02/03 13:30:12;;;;;;;;;31.67;31.00;;;;;9.63;70.92;101224.53;5100435;27;45289;-78
2022/02/03 13:32:44;;;;;;;;;37.50;33.00;;;;;9.63;70.97;101227.19;5075258;27;45427;-78
2022/02/03 13:38:01;;;;;;;;;28.67;27.67;;;;;9.66;70.89;101228.69;5059689;28;45252;-77
2022/02/03 13:40:28;;;;;;;;;31.67;29.00;;;;;9.59;70.43;101210.78;5059655;28;45226;-80
2022/02/03 13:43:10;;;;;;;;;36.00;31.33;;;;;9.60;71.21;101217.75;5062316;28;45219;-77
2022/02/03 13:45:39;;;;;;;;;31.00;30.00;;;;;9.62;70.93;101228.19;5075891;28;45260;-80
2022/02/03 13:48:19;;;;;;;;;33.67;31.67;;;;;9.56;71.22;101213.75;5070113;28;47173;-79
2022/02/03 13:50:54;;;;;;;;;33.67;28.67;;;;;9.54;70.98;101209.56;5072232;28;46273;-79
2022/02/03 13:53:25;;;;;;;;;32.67;30.33;;;;;9.57;71.24;101211.91;5084979;27;45524;-78
2022/02/03 14:13:29;;;;;;;;;32.67;30.33;;;;;9.36;71.30;101167.16;5069846;28;45446;-78
2022/02/03 14:23:26;;;;;;;;;33.00;30.00;;;;;9.29;70.91;101189.00;5072220;28;45364;-78
2022/02/03 14:28:33;;;;;;;;;30.00;28.33;;;;;9.13;71.40;101184.38;5079398;28;45350;-79
2022/02/03 14:31:03;;;;;;;;;28.00;26.33;;;;;9.20;71.91;101201.38;5079331;28;45386;-82
2022/02/03 14:33:34;;;;;;;;;32.33;29.33;;;;;9.06;72.26;101188.66;5079859;28;46139;-78
2022/02/03 14:36:12;;;;;;;;;35.67;32.67;;;;;9.15;72.24;101210.75;5078104;28;45536;-81
2022/02/03 14:41:30;;;;;;;;;30.67;30.00;;;;;9.04;72.57;101191.44;5078850;28;45416;-80
2022/02/03 14:43:57;;;;;;;;;28.33;25.00;;;;;9.02;72.64;101195.25;5079367;27;46471;-80
2022/02/03 14:46:22;;;;;;;;;39.25;35.75;;;;;9.03;72.70;101199.56;5077625;28;45860;-82
2022/02/03 14:48:49;;;;;;;;;50.00;38.25;;;;;9.04;72.66;101187.97;5074503;28;45230;-78
2022/02/03 14:51:22;;;;;;;;;40.50;35.75;;;;;9.03;73.10;101186.28;5081178;27;45478;-77
2022/02/03 14:59:01;;;;;;;;;39.50;34.75;;;;;9.21;73.01;101192.44;5072410;28;45594;-82
2022/02/03 15:01:27;;;;;;;;;39.00;32.33;;;;;9.13;72.98;101162.38;5062558;28;45295;-79
2022/02/03 15:03:55;;;;;;;;;33.50;31.00;;;;;9.22;73.04;101164.91;5062812;28;46050;-80
2022/02/03 15:06:24;;;;;;;;;37.33;33.33;;;;;9.22;72.65;101159.59;5062514;28;45284;-82
2022/02/03 15:14:13;;;;;;;;;25.00;24.00;;;;;9.37;72.62;101174.94;5062880;28;46017;-83
2022/02/03 15:16:38;;;;;;;;;31.00;30.67;;;;;9.41;72.53;101188.75;5065696;28;45243;-85
2022/02/03 15:19:05;;;;;;;;;36.67;31.33;;;;;9.24;72.63;101154.16;5063667;28;45326;-85
2022/02/03 15:21:31;;;;;;;;;36.33;32.00;;;;;9.30;72.33;101161.50;5062527;28;45224;-87
2022/02/03 15:23:56;;;;;;;;;30.67;29.33;;;;;9.36;72.93;101172.47;5069218;28;47151;-88
2022/02/03 15:26:22;;;;;;;;;36.00;32.33;;;;;9.37;72.83;101164.34;5060299;28;45453;-84
2022/02/03 15:28:47;;;;;;;;;30.67;25.33;;;;;9.44;72.52;101175.16;5063308;28;45235;-83
2022/02/03 15:31:14;;;;;;;;;29.00;28.00;;;;;9.46;72.71;101178.50;5067064;28;45177;-83
2022/02/03 15:33:43;;;;;;;;;33.33;29.67;;;;;9.40;72.66;101163.22;5069392;28;45249;-82
2022/02/03 15:36:11;;;;;;;;;37.33;32.00;;;;;9.33;72.42;101163.00;5067079;28;45324;-83
2022/02/03 15:38:43;;;;;;;;;31.00;29.67;;;;;9.49;72.71;101183.50;5067609;28;45170;-83
2022/02/03 15:41:08;;;;;;;;;31.67;27.33;;;;;9.49;72.82;101180.00;5066419;28;47338;-82
2022/02/03 15:43:41;;;;;;;;;37.33;31.00;;;;;9.50;72.87;101173.72;5066197;28;47291;-83
2022/02/03 15:46:08;;;;;;;;;30.33;29.67;;;;;9.65;72.63;101190.72;5067761;28;45352;-78
2022/02/03 16:17:39;;;;;;;;;33.33;31.00;;;;;9.25;73.66;101163.75;5064015;28;45167;-80
2022/02/03 16:20:13;;;;;;;;;32.00;29.00;;;;;9.26;73.65;101168.09;5079808;28;45294;-80
2022/02/03 16:22:48;;;;;;;;;33.33;30.00;;;;;9.22;73.54;101156.94;5079593;28;46256;-80
2022/02/03 16:54:42;;;;;;;;;33.33;30.67;;;;;8.89;74.09;101161.19;5080452;27;45224;-81
2022/02/03 16:57:17;;;;;;;;;37.00;33.67;;;;;8.64;74.27;101127.34;5079253;28;48134;-79
2022/02/03 16:59:53;;;;;;;;;36.75;32.25;;;;;8.92;74.10;101177.59;5080821;27;45219;-78
2022/02/03 17:02:20;;;;;;;;;35.33;31.33;;;;;8.91;74.27;101175.94;5079431;28;45343;-80
2022/02/03 17:04:45;;;;;;;;;29.67;29.00;;;;;8.76;74.37;101154.44;5079529;27;45353;-80
2022/02/03 17:07:11;;;;;;;;;37.00;31.67;;;;;9.03;74.43;101194.25;5076273;28;47200;-79
2022/02/03 17:09:38;;;;;;;;;28.00;27.33;;;;;8.90;74.55;101173.44;5068838;28;45319;-77
2022/02/03 17:12:05;;;;;;;;;32.33;29.33;;;;;9.03;74.74;101196.91;5058832;28;45318;-78
2022/02/03 17:14:31;;;;;;;;;32.67;29.00;;;;;8.97;75.05;101190.41;5060158;28;45325;-76
2022/02/03 17:16:58;;;;;;;;;31.33;29.33;;;;;8.98;75.00;101178.81;5060145;28;45299;-78
2022/02/03 17:19:23;;;;;;;;;35.00;31.00;;;;;8.92;75.50;101166.19;5098026;27;45524;-78
2022/02/03 17:21:48;;;;;;;;;32.67;31.00;;;;;9.02;74.91;101177.53;5100251;27;45314;-78
2022/02/03 17:24:14;;;;;;;;;32.33;29.00;;;;;8.98;75.15;101170.03;5098685;27;46659;-78
2022/02/03 17:27:07;;;;;;;;;28.33;26.33;;;;;9.02;75.10;101180.19;5101960;27;45259;-78
2022/02/03 17:29:47;;;;;;;;;28.33;27.00;;;;;8.99;75.04;101171.69;5101002;27;45368;-80
2022/02/03 17:32:24;;;;;;;;;28.67;27.00;;;;;9.03;75.21;101181.84;5099383;27;45268;-78
2022/02/03 17:52:17;;;;;;;;;32.33;28.00;;;;;8.87;74.84;101182.53;5100360;27;45330;-84
2022/02/03 18:10:27;;;;;;;;;41.00;34.00;;;;;8.81;75.18;101173.38;5059088;28;45423;-81
2022/02/03 18:19:42;;;;;;;;;38.75;34.00;;;;;8.98;75.61;101197.34;5078983;27;45264;-78
2022/02/03 18:32:32;;;;;;;;;33.00;27.67;;;;;8.90;75.91;101199.94;5099801;27;45761;-81
2022/02/03 18:53:17;;;;;;;;;33.00;30.33;;;;;8.88;75.91;101197.44;5082731;27;46186;-79
2022/02/03 19:09:30;;;;;;;;;40.25;36.00;;;;;8.82;75.83;101195.41;5061888;28;46161;-82
2022/02/03 19:27:53;;;;;;;;;37.67;34.00;;;;;8.82;76.64;101198.06;5061755;28;45168;-82
2022/02/03 20:01:18;;;;;;;;;38.33;34.67;;;;;8.73;77.96;101185.69;5073223;28;45303;-82
2022/02/03 20:08:52;;;;;;;;;36.33;33.67;;;;;8.70;78.35;101208.88;5069951;27;45998;-80
2022/02/03 20:11:19;;;;;;;;;40.33;35.33;;;;;8.62;78.76;101194.72;5076336;28;45806;-83
2022/02/03 20:13:47;;;;;;;;;37.25;32.75;;;;;8.59;78.40;101199.31;5069291;27;45409;-82
2022/02/03 20:16:16;;;;;;;;;34.67;30.33;;;;;8.74;78.49;101227.94;5071560;28;45371;-82
2022/02/03 20:18:41;;;;;;;;;28.67;28.67;;;;;8.61;78.57;101200.97;5096370;27;46399;-81
2022/02/03 20:21:07;;;;;;;;;38.75;33.00;;;;;8.57;79.23;101197.81;5073131;28;46396;-82
2022/02/03 20:23:37;;;;;;;;;34.00;32.25;;;;;8.70;78.90;101231.88;5075833;28;45367;-81
2022/02/03 20:26:02;;;;;;;;;44.00;36.75;;;;;8.57;78.89;101205.75;5066313;28;46096;-78
2022/02/03 20:28:28;;;;;;;;;39.75;33.25;;;;;8.65;79.36;101216.44;5069739;28;45529;-79
2022/02/03 20:30:54;;;;;;;;;35.33;32.33;;;;;8.56;79.17;101201.47;5068040;28;45161;-79
2022/02/03 20:33:20;;;;;;;;;34.00;30.33;;;;;8.58;79.15;101205.63;5070199;27;45387;-78
2022/02/03 20:35:46;;;;;;;;;36.00;32.00;;;;;8.59;79.15;101212.56;5066544;27;45418;-78
2022/02/03 20:38:14;;;;;;;;;32.33;31.00;;;;;8.59;79.47;101207.28;5071639;28;46285;-79
2022/02/03 20:40:40;;;;;;;;;36.33;33.33;;;;;8.67;79.01;101226.88;5058777;28;45649;-80
2022/02/03 20:43:06;;;;;;;;;32.33;30.33;;;;;8.66;79.58;101230.53;5071831;28;45224;-79
2022/02/03 20:45:31;;;;;;;;;31.67;30.67;;;;;8.50;79.66;101204.66;5070858;28;45408;-82
2022/02/03 20:47:57;;;;;;;;;35.33;31.00;;;;;8.63;79.63;101229.03;5069723;28;47486;-82
2022/02/03 20:50:22;;;;;;;;;31.67;30.33;;;;;8.60;79.55;101224.00;5084462;27;45402;-83
2022/02/03 20:52:48;;;;;;;;;30.67;26.00;;;;;8.58;80.11;101215.38;5070120;28;45397;-82
2022/02/03 20:55:14;;;;;;;;;34.67;31.33;;;;;8.59;79.71;101222.31;5083405;27;46120;-84
2022/02/03 20:57:40;;;;;;;;;27.67;27.00;;;;;8.54;80.02;101219.31;5079176;28;45362;-83
2022/02/03 21:00:18;;;;;;;;;35.00;31.67;;;;;8.48;79.67;101207.47;5079619;27;45710;-83
2022/02/03 21:05:15;;;;;;;;;27.00;25.67;;;;;8.63;80.04;101236.13;5079474;28;45406;-84
2022/02/03 21:07:42;;;;;;;;;37.00;33.67;;;;;8.62;79.81;101235.28;5079462;27;45504;-83
2022/02/03 21:10:11;;;;;;;;;29.00;27.00;;;;;8.54;80.37;101228.09;5080178;28;45539;-83
2022/02/03 21:12:37;;;;;;;;;30.67;28.00;;;;;8.51;81.01;101215.13;5079177;28;45283;-83
2022/02/03 21:15:05;;;;;;;;;30.33;28.67;;;;;8.60;80.45;101229.31;5078423;28;46224;-84
2022/02/03 21:17:31;;;;;;;;;29.67;28.00;;;;;8.60;80.55;101237.25;5083044;27;45346;-83
2022/02/03 21:20:06;;;;;;;;;29.33;26.33;;;;;8.57;80.81;101233.09;5085950;27;45310;-84
2022/02/03 21:22:31;;;;;;;;;27.33;26.33;;;;;8.59;80.67;101240.88;5073686;28;45349;-83
2022/02/03 21:25:03;;;;;;;;;29.00;28.00;;;;;8.58;80.73;101236.56;5075597;27;45467;-83
2022/02/03 21:27:31;;;;;;;;;30.00;27.67;;;;;8.51;80.97;101235.47;5080076;28;46140;-83
2022/02/03 21:29:56;;;;;;;;;29.33;26.00;;;;;8.49;81.38;101224.19;5095762;27;45314;-83
2022/02/03 21:32:22;;;;;;;;;32.67;29.33;;;;;8.58;81.43;101232.13;5078803;28;45340;-84
2022/02/03 21:34:51;;;;;;;;;33.67;30.33;;;;;8.55;81.32;101228.91;5079896;28;45367;-83
2022/02/03 21:37:17;;;;;;;;;37.67;31.67;;;;;8.35;81.07;101202.50;5079895;28;45589;-84
2022/02/03 21:39:42;;;;;;;;;32.67;28.33;;;;;8.56;81.52;101230.59;5079943;28;45210;-83
2022/02/03 21:42:08;;;;;;;;;30.00;25.00;;;;;8.55;81.82;101227.09;5078511;28;45294;-83
2022/02/03 21:44:34;;;;;;;;;26.33;26.00;;;;;8.56;80.81;101238.56;5095817;27;46194;-84
2022/02/03 21:46:59;;;;;;;;;25.67;25.00;;;;;8.43;81.41;101221.16;5078798;28;48169;-83
2022/02/03 21:49:24;;;;;;;;;30.33;26.00;;;;;8.52;81.79;101235.31;5079714;28;45258;-84
2022/02/03 21:51:53;;;;;;;;;28.00;28.00;;;;;8.23;81.38;101201.88;5079939;27;45897;-84
2022/02/03 21:54:18;;;;;;;;;31.67;29.00;;;;;8.50;81.44;101236.47;5078376;28;46474;-84
2022/02/03 21:56:44;;;;;;;;;31.67;29.00;;;;;8.51;81.37;101233.66;5078537;28;46219;-84
2022/02/03 21:59:11;;;;;;;;;35.33;31.33;;;;;8.36;81.77;101222.72;5078597;28;45378;-84
2022/02/03 22:01:40;;;;;;;;;31.67;29.33;;;;;8.51;81.85;101238.13;5078560;28;45309;-84
2022/02/03 22:04:07;;;;;;;;;27.67;26.67;;;;;8.51;81.49;101243.41;5079658;27;45301;-83
2022/02/03 22:06:32;;;;;;;;;32.00;28.00;;;;;8.50;81.84;101231.97;5078480;28;47900;-84
2022/02/03 22:08:57;;;;;;;;;32.00;27.33;;;;;8.42;81.86;101227.44;5095339;27;45954;-84
2022/02/03 22:11:23;;;;;;;;;30.00;27.00;;;;;8.41;81.62;101224.94;5082014;28;46089;-83
2022/02/03 22:13:48;;;;;;;;;19.00;17.00;;;;;8.08;81.39;101177.69;5083456;28;45374;-84
2022/02/03 22:16:20;;;;;;;;;25.67;25.00;;;;;8.41;81.59;101239.00;5083346;28;45920;-84
2022/02/03 22:18:45;;;;;;;;;20.67;19.33;;;;;8.38;81.86;101228.69;5096760;27;45277;-85
2022/02/03 22:47:39;;;;;;;;;24.67;23.00;;;;;8.40;81.68;101244.44;5102795;27;46167;-83
2022/02/03 22:50:07;;;;;;;;;30.33;24.67;;;;;8.22;81.52;101221.41;5103129;27;45232;-84
2022/02/03 22:52:33;;;;;;;;;23.00;22.67;;;;;8.39;82.56;101246.28;5102017;27;45348;-84
2022/02/03 22:54:59;;;;;;;;;29.33;24.67;;;;;8.33;81.98;101238.91;5103128;27;45475;-84
2022/02/03 22:57:25;;;;;;;;;29.67;26.00;;;;;8.40;82.09;101253.22;5101818;27;47321;-85
2022/02/03 23:02:15;;;;;;;;;29.33;28.00;;;;;8.36;81.71;101248.38;5103270;27;45314;-84
2022/02/03 23:04:41;;;;;;;;;27.00;23.67;;;;;8.16;81.71;101228.13;5102897;27;45307;-84
2022/02/03 23:07:16;;;;;;;;;23.33;22.00;;;;;8.36;82.41;101251.88;5103104;27;45311;-84